sensor_id;sensor_type;location;lat;lon;timestamp;pressure;altitude;pressure_sealevel;temperature;humidity
31331;BME280;34067;39.548;-76.088;2023-01-25T00:00:32;102380.50;;;3.56;56.08
31331;BME280;34067;39.548;-76.088;2023-01-25T00:03:00;102397.91;;;1.88;61.08
31331;BME280;34067;39.548;-76.088;2023-01-25T00:05:29;102400.40;;;2.12;58.60
31331;BME280;34067;39.548;-76.088;2023-01-25T00:07:56;102408.40;;;3.45;56.44
31331;BME280;34067;39.548;-76.088;2023-01-25T00:10:24;102416.90;;;3.82;55.20
31331;BME280;34067;39.548;-76.088;2023-01-25T00:12:52;102422.06;;;4.28;52.66
31331;BME280;34067;39.548;-76.088;2023-01-25T00:15:22;102421.42;;;4.34;52.26
31331;BME280;34067;39.548;-76.088;2023-01-25T00:17:50;102431.13;;;3.77;52.48
31331;BME280;34067;39.548;-76.088;2023-01-25T00:20:18;102431.26;;;4.17;53.84
31331;BME280;34067;39.548;-76.088;2023-01-25T00:22:46;102431.38;;;4.13;53.56
31331;BME280;34067;39.548;-76.088;2023-01-25T00:25:15;102442.02;;;4.25;55.27
31331;BME280;34067;39.548;-76.088;2023-01-25T00:27:44;102446.10;;;3.79;52.77
31331;BME280;34067;39.548;-76.088;2023-01-25T00:30:13;102449.68;;;2.86;56.64
31331;BME280;34067;39.548;-76.088;2023-01-25T00:32:48;102451.24;;;2.09;61.88
31331;BME280;34067;39.548;-76.088;2023-01-25T00:35:21;102460.36;;;1.56;69.15
31331;BME280;34067;39.548;-76.088;2023-01-25T00:37:52;102462.68;;;-0.15;72.19
31331;BME280;34067;39.548;-76.088;2023-01-25T00:40:20;102469.57;;;-0.09;69.41
31331;BME280;34067;39.548;-76.088;2023-01-25T00:42:49;102481.52;;;0.86;68.25
31331;BME280;34067;39.548;-76.088;2023-01-25T00:45:17;102480.28;;;2.58;64.97
31331;BME280;34067;39.548;-76.088;2023-01-25T00:47:45;102481.12;;;1.41;65.49
31331;BME280;34067;39.548;-76.088;2023-01-25T00:50:14;102478.87;;;0.92;67.45
31331;BME280;34067;39.548;-76.088;2023-01-25T00:52:43;102474.41;;;0.15;71.38
31331;BME280;34067;39.548;-76.088;2023-01-25T00:55:11;102477.25;;;-0.58;71.05
31331;BME280;34067;39.548;-76.088;2023-01-25T00:57:39;102487.03;;;-0.67;70.86
31331;BME280;34067;39.548;-76.088;2023-01-25T01:00:08;102484.01;;;1.18;69.79
31331;BME280;34067;39.548;-76.088;2023-01-25T01:02:36;102487.54;;;0.17;67.83
31331;BME280;34067;39.548;-76.088;2023-01-25T01:05:05;102483.60;;;0.80;66.84
31331;BME280;34067;39.548;-76.088;2023-01-25T01:07:33;102475.59;;;-0.56;65.95
31331;BME280;34067;39.548;-76.088;2023-01-25T01:10:02;102469.21;;;0.57;70.25
31331;BME280;34067;39.548;-76.088;2023-01-25T01:12:31;102475.71;;;0.93;71.09
31331;BME280;34067;39.548;-76.088;2023-01-25T01:14:59;102476.55;;;0.51;72.25
31331;BME280;34067;39.548;-76.088;2023-01-25T01:17:27;102478.81;;;0.42;75.19
31331;BME280;34067;39.548;-76.088;2023-01-25T01:19:56;102488.38;;;1.03;72.49
31331;BME280;34067;39.548;-76.088;2023-01-25T01:22:25;102495.28;;;1.56;72.85
31331;BME280;34067;39.548;-76.088;2023-01-25T01:24:53;102505.39;;;-0.10;77.37
31331;BME280;34067;39.548;-76.088;2023-01-25T01:27:21;102514.42;;;0.32;73.77
31331;BME280;34067;39.548;-76.088;2023-01-25T01:29:49;102521.19;;;-0.08;75.58
31331;BME280;34067;39.548;-76.088;2023-01-25T01:32:18;102528.11;;;0.55;79.72
31331;BME280;34067;39.548;-76.088;2023-01-25T01:34:46;102536.96;;;0.82;79.49
31331;BME280;34067;39.548;-76.088;2023-01-25T01:37:15;102547.03;;;0.18;67.39
31331;BME280;34067;39.548;-76.088;2023-01-25T01:39:43;102555.59;;;0.71;69.00
31331;BME280;34067;39.548;-76.088;2023-01-25T01:42:11;102567.06;;;-0.16;67.49
31331;BME280;34067;39.548;-76.088;2023-01-25T01:44:44;102587.15;;;0.54;64.94
31331;BME280;34067;39.548;-76.088;2023-01-25T01:47:17;102603.90;;;0.66;63.79
31331;BME280;34067;39.548;-76.088;2023-01-25T01:49:52;102597.18;;;1.26;65.60
31331;BME280;34067;39.548;-76.088;2023-01-25T01:52:25;102603.73;;;0.87;66.65
31331;BME280;34067;39.548;-76.088;2023-01-25T01:54:57;102614.87;;;0.97;68.84
31331;BME280;34067;39.548;-76.088;2023-01-25T01:57:32;102611.18;;;1.39;70.57
31331;BME280;34067;39.548;-76.088;2023-01-25T02:00:07;102605.88;;;1.67;69.46
31331;BME280;34067;39.548;-76.088;2023-01-25T02:02:38;102599.83;;;0.96;65.08
31331;BME280;34067;39.548;-76.088;2023-01-25T02:05:11;102599.12;;;2.44;68.35
31331;BME280;34067;39.548;-76.088;2023-01-25T02:07:47;102602.66;;;1.01;67.74
31331;BME280;34067;39.548;-76.088;2023-01-25T02:10:17;102604.45;;;1.08;66.46
31331;BME280;34067;39.548;-76.088;2023-01-25T02:12:47;102603.67;;;1.96;65.04
31331;BME280;34067;39.548;-76.088;2023-01-25T02:15:15;102610.87;;;1.86;64.56
31331;BME280;34067;39.548;-76.088;2023-01-25T02:17:44;102607.94;;;3.40;63.66
31331;BME280;34067;39.548;-76.088;2023-01-25T02:20:16;102595.40;;;2.72;59.27
31331;BME280;34067;39.548;-76.088;2023-01-25T02:22:53;102599.29;;;3.56;56.65
31331;BME280;34067;39.548;-76.088;2023-01-25T02:25:23;102596.33;;;3.57;55.40
31331;BME280;34067;39.548;-76.088;2023-01-25T02:27:54;102594.81;;;2.13;56.00
31331;BME280;34067;39.548;-76.088;2023-01-25T02:30:23;102589.00;;;2.10;56.58
31331;BME280;34067;39.548;-76.088;2023-01-25T02:32:52;102595.85;;;1.32;56.86
31331;BME280;34067;39.548;-76.088;2023-01-25T02:35:23;102598.55;;;1.12;59.41
31331;BME280;34067;39.548;-76.088;2023-01-25T02:37:52;102600.37;;;2.97;57.50
31331;BME280;34067;39.548;-76.088;2023-01-25T02:40:20;102602.27;;;3.81;54.56
31331;BME280;34067;39.548;-76.088;2023-01-25T02:42:48;102595.85;;;3.44;54.70
31331;BME280;34067;39.548;-76.088;2023-01-25T02:45:19;102592.75;;;3.29;53.61
31331;BME280;34067;39.548;-76.088;2023-01-25T02:47:50;102582.64;;;4.21;52.16
31331;BME280;34067;39.548;-76.088;2023-01-25T02:50:19;102581.77;;;4.15;52.00
31331;BME280;34067;39.548;-76.088;2023-01-25T02:52:46;102589.90;;;3.75;51.55
31331;BME280;34067;39.548;-76.088;2023-01-25T02:55:14;102585.33;;;3.53;52.22
31331;BME280;34067;39.548;-76.088;2023-01-25T02:57:42;102585.16;;;4.02;51.95
31331;BME280;34067;39.548;-76.088;2023-01-25T03:00:12;102583.56;;;3.08;53.25
31331;BME280;34067;39.548;-76.088;2023-01-25T03:02:39;102580.65;;;3.81;51.89
31331;BME280;34067;39.548;-76.088;2023-01-25T03:05:08;102567.45;;;4.00;50.46
31331;BME280;34067;39.548;-76.088;2023-01-25T03:07:36;102561.41;;;4.21;52.37
31331;BME280;34067;39.548;-76.088;2023-01-25T03:10:05;102563.92;;;3.08;53.58
31331;BME280;34067;39.548;-76.088;2023-01-25T03:12:34;102568.97;;;3.78;52.33
31331;BME280;34067;39.548;-76.088;2023-01-25T03:15:03;102578.76;;;3.39;53.13
31331;BME280;34067;39.548;-76.088;2023-01-25T03:17:31;102578.84;;;3.08;54.43
31331;BME280;34067;39.548;-76.088;2023-01-25T03:19:59;102574.08;;;2.43;54.05
31331;BME280;34067;39.548;-76.088;2023-01-25T03:22:27;102567.46;;;2.19;55.11
31331;BME280;34067;39.548;-76.088;2023-01-25T03:24:56;102563.60;;;3.45;55.02
31331;BME280;34067;39.548;-76.088;2023-01-25T03:27:24;102554.85;;;3.56;54.27
31331;BME280;34067;39.548;-76.088;2023-01-25T03:29:52;102554.42;;;3.06;61.07
31331;BME280;34067;39.548;-76.088;2023-01-25T03:32:21;102555.53;;;2.46;63.32
31331;BME280;34067;39.548;-76.088;2023-01-25T03:34:49;102560.17;;;2.70;64.08
31331;BME280;34067;39.548;-76.088;2023-01-25T03:37:16;102561.65;;;2.63;64.06
31331;BME280;34067;39.548;-76.088;2023-01-25T03:39:45;102556.29;;;2.07;64.99
31331;BME280;34067;39.548;-76.088;2023-01-25T03:42:13;102546.10;;;2.87;61.81
31331;BME280;34067;39.548;-76.088;2023-01-25T03:44:42;102542.42;;;2.07;63.81
31331;BME280;34067;39.548;-76.088;2023-01-25T03:47:10;102548.19;;;2.78;61.45
31331;BME280;34067;39.548;-76.088;2023-01-25T03:49:38;102550.54;;;3.25;60.25
31331;BME280;34067;39.548;-76.088;2023-01-25T03:52:06;102549.68;;;3.36;59.60
31331;BME280;34067;39.548;-76.088;2023-01-25T03:54:34;102547.96;;;2.94;59.65
31331;BME280;34067;39.548;-76.088;2023-01-25T03:57:03;102549.79;;;2.96;58.66
31331;BME280;34067;39.548;-76.088;2023-01-25T03:59:31;102543.27;;;2.49;60.29
31331;BME280;34067;39.548;-76.088;2023-01-25T04:01:59;102539.12;;;2.64;58.12
31331;BME280;34067;39.548;-76.088;2023-01-25T04:04:28;102547.45;;;2.24;57.87
31331;BME280;34067;39.548;-76.088;2023-01-25T04:06:56;102546.55;;;2.56;58.18
31331;BME280;34067;39.548;-76.088;2023-01-25T04:09:24;102546.23;;;2.78;56.93
31331;BME280;34067;39.548;-76.088;2023-01-25T04:11:52;102537.79;;;3.02;55.28
31331;BME280;34067;39.548;-76.088;2023-01-25T04:14:20;102534.30;;;3.04;54.90
31331;BME280;34067;39.548;-76.088;2023-01-25T04:16:48;102533.23;;;2.73;54.78
31331;BME280;34067;39.548;-76.088;2023-01-25T04:19:15;102527.61;;;2.82;54.69
31331;BME280;34067;39.548;-76.088;2023-01-25T04:21:44;102513.16;;;2.12;55.65
31331;BME280;34067;39.548;-76.088;2023-01-25T04:24:12;102509.09;;;2.64;56.72
31331;BME280;34067;39.548;-76.088;2023-01-25T04:26:40;102509.74;;;2.24;57.46
31331;BME280;34067;39.548;-76.088;2023-01-25T04:29:09;102516.72;;;2.43;56.95
31331;BME280;34067;39.548;-76.088;2023-01-25T04:31:38;102520.13;;;1.99;57.69
31331;BME280;34067;39.548;-76.088;2023-01-25T04:34:06;102515.29;;;2.54;56.70
31331;BME280;34067;39.548;-76.088;2023-01-25T04:36:33;102513.65;;;2.36;57.34
31331;BME280;34067;39.548;-76.088;2023-01-25T04:39:02;102519.27;;;2.51;57.97
31331;BME280;34067;39.548;-76.088;2023-01-25T04:41:30;102520.74;;;2.05;57.69
31331;BME280;34067;39.548;-76.088;2023-01-25T04:43:58;102522.98;;;2.11;58.62
31331;BME280;34067;39.548;-76.088;2023-01-25T04:46:26;102522.74;;;1.66;59.89
31331;BME280;34067;39.548;-76.088;2023-01-25T04:48:55;102508.54;;;1.68;59.72
31331;BME280;34067;39.548;-76.088;2023-01-25T04:51:22;102507.38;;;1.29;61.30
31331;BME280;34067;39.548;-76.088;2023-01-25T04:53:51;102495.79;;;1.78;60.74
31331;BME280;34067;39.548;-76.088;2023-01-25T04:56:19;102492.28;;;1.44;62.36
31331;BME280;34067;39.548;-76.088;2023-01-25T04:58:47;102491.70;;;2.85;61.72
31331;BME280;34067;39.548;-76.088;2023-01-25T05:01:16;102490.23;;;2.31;62.67
31331;BME280;34067;39.548;-76.088;2023-01-25T05:03:44;102482.66;;;1.79;63.67
31331;BME280;34067;39.548;-76.088;2023-01-25T05:06:12;102473.75;;;1.92;63.11
31331;BME280;34067;39.548;-76.088;2023-01-25T05:08:40;102462.26;;;1.21;64.89
31331;BME280;34067;39.548;-76.088;2023-01-25T05:11:08;102460.64;;;1.51;63.26
31331;BME280;34067;39.548;-76.088;2023-01-25T05:13:36;102467.95;;;2.13;62.29
31331;BME280;34067;39.548;-76.088;2023-01-25T05:16:04;102463.65;;;1.50;61.24
31331;BME280;34067;39.548;-76.088;2023-01-25T05:18:33;102462.10;;;1.47;61.53
31331;BME280;34067;39.548;-76.088;2023-01-25T05:21:01;102456.22;;;2.54;61.40
31331;BME280;34067;39.548;-76.088;2023-01-25T05:23:29;102457.12;;;2.55;61.79
31331;BME280;34067;39.548;-76.088;2023-01-25T05:25:57;102460.20;;;2.23;61.51
31331;BME280;34067;39.548;-76.088;2023-01-25T05:28:25;102459.75;;;2.95;60.61
31331;BME280;34067;39.548;-76.088;2023-01-25T05:30:54;102458.65;;;1.96;61.14
31331;BME280;34067;39.548;-76.088;2023-01-25T05:33:22;102463.36;;;1.90;60.76
31331;BME280;34067;39.548;-76.088;2023-01-25T05:35:51;102461.35;;;1.32;60.97
31331;BME280;34067;39.548;-76.088;2023-01-25T05:38:18;102446.61;;;2.32;61.84
31331;BME280;34067;39.548;-76.088;2023-01-25T05:40:46;102449.70;;;1.25;63.18
31331;BME280;34067;39.548;-76.088;2023-01-25T05:43:15;102454.59;;;2.34;61.79
31331;BME280;34067;39.548;-76.088;2023-01-25T05:45:42;102461.56;;;2.55;61.25
31331;BME280;34067;39.548;-76.088;2023-01-25T05:48:10;102465.63;;;1.31;63.13
31331;BME280;34067;39.548;-76.088;2023-01-25T05:50:39;102459.26;;;2.20;61.92
31331;BME280;34067;39.548;-76.088;2023-01-25T05:53:07;102450.19;;;1.76;61.43
31331;BME280;34067;39.548;-76.088;2023-01-25T05:55:35;102456.02;;;1.24;61.45
31331;BME280;34067;39.548;-76.088;2023-01-25T05:58:04;102467.07;;;1.51;60.40
31331;BME280;34067;39.548;-76.088;2023-01-25T06:03:10;102469.75;;;2.25;60.15
31331;BME280;34067;39.548;-76.088;2023-01-25T06:05:38;102479.63;;;2.05;61.64
31331;BME280;34067;39.548;-76.088;2023-01-25T06:08:06;102484.65;;;1.66;61.10
31331;BME280;34067;39.548;-76.088;2023-01-25T06:10:34;102482.56;;;1.70;61.45
31331;BME280;34067;39.548;-76.088;2023-01-25T06:13:02;102489.68;;;1.49;61.52
31331;BME280;34067;39.548;-76.088;2023-01-25T06:15:30;102505.54;;;2.04;61.50
31331;BME280;34067;39.548;-76.088;2023-01-25T06:17:58;102509.85;;;1.92;61.32
31331;BME280;34067;39.548;-76.088;2023-01-25T06:20:26;102515.26;;;1.54;61.34
31331;BME280;34067;39.548;-76.088;2023-01-25T06:22:54;102523.57;;;1.74;61.17
31331;BME280;34067;39.548;-76.088;2023-01-25T06:25:22;102533.15;;;2.53;61.94
31331;BME280;34067;39.548;-76.088;2023-01-25T06:27:50;102549.25;;;1.26;62.13
31331;BME280;34067;39.548;-76.088;2023-01-25T06:30:22;102556.45;;;1.16;62.02
31331;BME280;34067;39.548;-76.088;2023-01-25T06:32:50;102568.38;;;1.78;61.70
31331;BME280;34067;39.548;-76.088;2023-01-25T06:35:18;102574.27;;;2.11;61.77
31331;BME280;34067;39.548;-76.088;2023-01-25T06:37:46;102574.61;;;1.43;61.54
31331;BME280;34067;39.548;-76.088;2023-01-25T06:40:15;102565.38;;;1.56;62.05
31331;BME280;34067;39.548;-76.088;2023-01-25T06:42:43;102563.16;;;1.72;61.47
31331;BME280;34067;39.548;-76.088;2023-01-25T06:45:12;102547.51;;;1.90;61.28
31331;BME280;34067;39.548;-76.088;2023-01-25T06:47:40;102546.45;;;-0.04;66.20
31331;BME280;34067;39.548;-76.088;2023-01-25T06:50:09;102546.19;;;-0.06;67.96
31331;BME280;34067;39.548;-76.088;2023-01-25T06:52:37;102541.36;;;0.02;72.62
31331;BME280;34067;39.548;-76.088;2023-01-25T06:55:07;102533.62;;;-0.27;74.03
31331;BME280;34067;39.548;-76.088;2023-01-25T06:57:35;102531.97;;;-0.53;75.97
31331;BME280;34067;39.548;-76.088;2023-01-25T07:00:03;102511.94;;;0.15;76.81
31331;BME280;34067;39.548;-76.088;2023-01-25T07:02:32;102503.13;;;-0.70;79.11
31331;BME280;34067;39.548;-76.088;2023-01-25T07:04:59;102497.03;;;-0.47;79.32
31331;BME280;34067;39.548;-76.088;2023-01-25T07:07:28;102500.31;;;-0.05;78.31
31331;BME280;34067;39.548;-76.088;2023-01-25T07:09:55;102496.36;;;-0.07;74.68
31331;BME280;34067;39.548;-76.088;2023-01-25T07:12:24;102506.44;;;0.19;73.36
31331;BME280;34067;39.548;-76.088;2023-01-25T07:14:52;102518.64;;;0.42;72.82
31331;BME280;34067;39.548;-76.088;2023-01-25T07:17:20;102525.89;;;0.44;71.48
31331;BME280;34067;39.548;-76.088;2023-01-25T07:19:48;102524.65;;;0.14;71.78
31331;BME280;34067;39.548;-76.088;2023-01-25T07:22:15;102527.51;;;1.23;69.49
31331;BME280;34067;39.548;-76.088;2023-01-25T07:24:44;102534.31;;;1.63;68.30
31331;BME280;34067;39.548;-76.088;2023-01-25T07:27:12;102536.45;;;1.50;67.34
31331;BME280;34067;39.548;-76.088;2023-01-25T07:29:40;102537.32;;;0.97;67.45
31331;BME280;34067;39.548;-76.088;2023-01-25T07:32:10;102520.82;;;1.58;65.39
31331;BME280;34067;39.548;-76.088;2023-01-25T07:32:12;102521.01;;;1.80;65.52
31331;BME280;34067;39.548;-76.088;2023-01-25T07:34:40;102516.48;;;1.76;64.85
31331;BME280;34067;39.548;-76.088;2023-01-25T07:37:08;102516.14;;;1.72;64.47
31331;BME280;34067;39.548;-76.088;2023-01-25T07:39:36;102502.23;;;1.89;63.61
31331;BME280;34067;39.548;-76.088;2023-01-25T07:42:04;102489.34;;;1.04;63.43
31331;BME280;34067;39.548;-76.088;2023-01-25T07:44:33;102489.28;;;1.72;64.25
31331;BME280;34067;39.548;-76.088;2023-01-25T07:47:00;102491.99;;;1.22;66.10
31331;BME280;34067;39.548;-76.088;2023-01-25T07:49:29;102496.07;;;-0.51;70.54
31331;BME280;34067;39.548;-76.088;2023-01-25T07:51:57;102490.72;;;0.49;70.85
31331;BME280;34067;39.548;-76.088;2023-01-25T07:54:25;102483.26;;;-0.25;71.13
31331;BME280;34067;39.548;-76.088;2023-01-25T07:56:53;102481.90;;;-0.56;74.96
31331;BME280;34067;39.548;-76.088;2023-01-25T07:59:20;102475.42;;;-0.17;73.44
31331;BME280;34067;39.548;-76.088;2023-01-25T08:01:48;102483.92;;;-1.41;77.79
31331;BME280;34067;39.548;-76.088;2023-01-25T08:04:16;102472.54;;;-0.24;77.68
31331;BME280;34067;39.548;-76.088;2023-01-25T08:06:44;102475.17;;;0.01;75.74
31331;BME280;34067;39.548;-76.088;2023-01-25T08:09:15;102476.17;;;-0.24;75.41
31331;BME280;34067;39.548;-76.088;2023-01-25T08:11:43;102481.50;;;0.39;73.18
31331;BME280;34067;39.548;-76.088;2023-01-25T08:14:12;102478.62;;;-0.30;74.47
31331;BME280;34067;39.548;-76.088;2023-01-25T08:16:41;102473.73;;;0.31;72.84
31331;BME280;34067;39.548;-76.088;2023-01-25T08:19:09;102464.55;;;1.27;70.50
31331;BME280;34067;39.548;-76.088;2023-01-25T08:21:38;102466.48;;;0.63;69.92
31331;BME280;34067;39.548;-76.088;2023-01-25T08:24:07;102471.61;;;0.72;69.05
31331;BME280;34067;39.548;-76.088;2023-01-25T08:26:36;102467.74;;;1.31;66.60
31331;BME280;34067;39.548;-76.088;2023-01-25T08:29:05;102468.59;;;1.71;66.46
31331;BME280;34067;39.548;-76.088;2023-01-25T08:31:34;102471.14;;;1.79;65.66
31331;BME280;34067;39.548;-76.088;2023-01-25T08:34:03;102474.30;;;1.70;64.13
31331;BME280;34067;39.548;-76.088;2023-01-25T08:36:31;102472.13;;;1.85;64.10
31331;BME280;34067;39.548;-76.088;2023-01-25T08:39:04;102469.28;;;1.80;63.66
31331;BME280;34067;39.548;-76.088;2023-01-25T08:41:34;102457.51;;;2.02;63.40
31331;BME280;34067;39.548;-76.088;2023-01-25T08:44:03;102485.22;;;2.17;64.04
31331;BME280;34067;39.548;-76.088;2023-01-25T08:46:32;102490.06;;;1.98;62.14
31331;BME280;34067;39.548;-76.088;2023-01-25T08:49:02;102523.07;;;1.31;62.79
31331;BME280;34067;39.548;-76.088;2023-01-25T08:51:31;102561.41;;;1.44;63.94
31331;BME280;34067;39.548;-76.088;2023-01-25T08:54:02;102568.67;;;0.56;64.40
31331;BME280;34067;39.548;-76.088;2023-01-25T08:56:31;102556.40;;;1.04;63.61
31331;BME280;34067;39.548;-76.088;2023-01-25T08:58:58;102558.75;;;2.15;62.26
31331;BME280;34067;39.548;-76.088;2023-01-25T09:01:26;102566.47;;;1.75;60.92
31331;BME280;34067;39.548;-76.088;2023-01-25T09:03:54;102567.03;;;2.02;59.25
31331;BME280;34067;39.548;-76.088;2023-01-25T09:06:23;102565.86;;;2.74;57.86
31331;BME280;34067;39.548;-76.088;2023-01-25T09:08:50;102568.66;;;1.76;59.51
31331;BME280;34067;39.548;-76.088;2023-01-25T09:11:21;102560.02;;;1.44;60.57
31331;BME280;34067;39.548;-76.088;2023-01-25T09:13:49;102554.48;;;1.00;63.75
31331;BME280;34067;39.548;-76.088;2023-01-25T09:16:19;102547.55;;;0.44;68.18
31331;BME280;34067;39.548;-76.088;2023-01-25T09:18:47;102543.78;;;-0.48;71.81
31331;BME280;34067;39.548;-76.088;2023-01-25T09:21:17;102537.83;;;0.16;70.34
31331;BME280;34067;39.548;-76.088;2023-01-25T09:23:48;102532.60;;;-0.17;74.04
31331;BME280;34067;39.548;-76.088;2023-01-25T09:26:16;102527.20;;;-0.58;74.25
31331;BME280;34067;39.548;-76.088;2023-01-25T09:28:47;102542.92;;;-0.22;75.24
31331;BME280;34067;39.548;-76.088;2023-01-25T09:31:15;102545.69;;;-1.33;80.29
31331;BME280;34067;39.548;-76.088;2023-01-25T09:33:44;102551.42;;;0.01;76.38
31331;BME280;34067;39.548;-76.088;2023-01-25T09:36:12;102539.30;;;-0.03;75.48
31331;BME280;34067;39.548;-76.088;2023-01-25T09:38:40;102512.74;;;0.15;73.41
31331;BME280;34067;39.548;-76.088;2023-01-25T09:41:23;102494.98;;;-0.92;74.44
31331;BME280;34067;39.548;-76.088;2023-01-25T09:44:03;102492.71;;;-0.71;74.43
31331;BME280;34067;39.548;-76.088;2023-01-25T09:46:40;102512.04;;;0.10;67.83
31331;BME280;34067;39.548;-76.088;2023-01-25T09:49:22;102486.89;;;-0.13;66.28
31331;BME280;34067;39.548;-76.088;2023-01-25T09:53:11;102515.58;;;0.89;65.82
31331;BME280;34067;39.548;-76.088;2023-01-25T09:55:43;102539.72;;;1.55;62.49
31331;BME280;34067;39.548;-76.088;2023-01-25T09:58:20;102535.40;;;2.09;59.56
31331;BME280;34067;39.548;-76.088;2023-01-25T10:00:51;102543.95;;;1.75;58.78
31331;BME280;34067;39.548;-76.088;2023-01-25T10:03:24;102542.53;;;2.09;58.05
31331;BME280;34067;39.548;-76.088;2023-01-25T10:05:55;102551.98;;;1.92;57.22
31331;BME280;34067;39.548;-76.088;2023-01-25T10:08:30;102546.26;;;2.11;56.42
31331;BME280;34067;39.548;-76.088;2023-01-25T10:11:03;102536.35;;;2.42;56.54
31331;BME280;34067;39.548;-76.088;2023-01-25T10:13:35;102559.95;;;2.90;55.96
31331;BME280;34067;39.548;-76.088;2023-01-25T10:16:09;102568.36;;;2.38;55.07
31331;BME280;34067;39.548;-76.088;2023-01-25T10:18:52;102549.62;;;2.31;54.76
31331;BME280;34067;39.548;-76.088;2023-01-25T10:21:28;102525.35;;;1.92;55.11
31331;BME280;34067;39.548;-76.088;2023-01-25T10:25:18;102528.40;;;2.70;55.00
31331;BME280;34067;39.548;-76.088;2023-01-25T10:27:55;102521.05;;;2.87;54.25
31331;BME280;34067;39.548;-76.088;2023-01-25T10:30:27;102521.94;;;2.64;53.98
31331;BME280;34067;39.548;-76.088;2023-01-25T10:32:59;102531.82;;;2.35;55.13
31331;BME280;34067;39.548;-76.088;2023-01-25T10:35:32;102539.18;;;2.80;54.35
31331;BME280;34067;39.548;-76.088;2023-01-25T10:38:04;102536.90;;;2.46;53.54
31331;BME280;34067;39.548;-76.088;2023-01-25T10:40:40;102539.94;;;2.48;53.49
31331;BME280;34067;39.548;-76.088;2023-01-25T10:43:16;102533.08;;;2.82;53.01
31331;BME280;34067;39.548;-76.088;2023-01-25T10:45:44;102510.71;;;3.35;52.98
31331;BME280;34067;39.548;-76.088;2023-01-25T10:48:17;102524.84;;;2.53;53.24
31331;BME280;34067;39.548;-76.088;2023-01-25T10:50:48;102497.95;;;3.15;52.81
31331;BME280;34067;39.548;-76.088;2023-01-25T10:53:27;102481.19;;;2.26;54.03
31331;BME280;34067;39.548;-76.088;2023-01-25T10:56:10;102475.39;;;2.20;55.04
31331;BME280;34067;39.548;-76.088;2023-01-25T10:58:43;102458.15;;;2.22;54.86
31331;BME280;34067;39.548;-76.088;2023-01-25T11:01:22;102443.42;;;1.59;56.22
31331;BME280;34067;39.548;-76.088;2023-01-25T11:03:51;102426.31;;;2.28;56.13
31331;BME280;34067;39.548;-76.088;2023-01-25T11:06:30;102421.25;;;1.77;57.02
31331;BME280;34067;39.548;-76.088;2023-01-25T11:08:59;102411.26;;;1.09;59.18
31331;BME280;34067;39.548;-76.088;2023-01-25T11:11:31;102393.00;;;0.35;61.99
31331;BME280;34067;39.548;-76.088;2023-01-25T11:14:03;102384.22;;;1.38;59.97
31331;BME280;34067;39.548;-76.088;2023-01-25T11:16:45;102358.57;;;0.27;60.34
31331;BME280;34067;39.548;-76.088;2023-01-25T11:19:33;102341.49;;;0.56;60.21
31331;BME280;34067;39.548;-76.088;2023-01-25T11:22:03;102332.28;;;1.20;60.27
31331;BME280;34067;39.548;-76.088;2023-01-25T11:24:33;102331.35;;;0.51;60.46
31331;BME280;34067;39.548;-76.088;2023-01-25T11:27:20;102307.97;;;-0.59;61.14
31331;BME280;34067;39.548;-76.088;2023-01-25T11:30:08;102290.49;;;-0.86;63.43
31331;BME280;34067;39.548;-76.088;2023-01-25T11:32:37;102319.46;;;0.63;62.85
31331;BME280;34067;39.548;-76.088;2023-01-25T11:35:12;102359.55;;;0.88;60.66
31331;BME280;34067;39.548;-76.088;2023-01-25T11:37:52;102381.85;;;-1.17;63.82
31331;BME280;34067;39.548;-76.088;2023-01-25T11:40:29;102404.49;;;0.65;61.39
31331;BME280;34067;39.548;-76.088;2023-01-25T11:43:05;102409.79;;;1.86;58.79
31331;BME280;34067;39.548;-76.088;2023-01-25T11:45:57;102398.74;;;1.76;57.82
31331;BME280;34067;39.548;-76.088;2023-01-25T11:48:42;102391.73;;;1.45;58.61
31331;BME280;34067;39.548;-76.088;2023-01-25T11:51:19;102393.11;;;0.78;60.52
31331;BME280;34067;39.548;-76.088;2023-01-25T11:53:59;102402.83;;;1.05;60.77
31331;BME280;34067;39.548;-76.088;2023-01-25T11:56:42;102420.91;;;0.89;59.47
31331;BME280;34067;39.548;-76.088;2023-01-25T11:59:29;102409.43;;;1.24;58.63
31331;BME280;34067;39.548;-76.088;2023-01-25T12:02:18;102398.41;;;1.29;58.59
31331;BME280;34067;39.548;-76.088;2023-01-25T12:05:01;102410.43;;;0.14;61.10
31331;BME280;34067;39.548;-76.088;2023-01-25T12:07:45;102403.46;;;1.20;60.19
31331;BME280;34067;39.548;-76.088;2023-01-25T12:10:24;102409.59;;;0.69;61.10
31331;BME280;34067;39.548;-76.088;2023-01-25T12:13:00;102396.40;;;0.42;61.41
31331;BME280;34067;39.548;-76.088;2023-01-25T12:15:42;102355.72;;;0.09;61.60
31331;BME280;34067;39.548;-76.088;2023-01-25T12:18:29;102363.55;;;0.09;64.00
31331;BME280;34067;39.548;-76.088;2023-01-25T12:21:07;102390.10;;;1.34;60.35
31331;BME280;34067;39.548;-76.088;2023-01-25T12:23:51;102383.05;;;1.70;57.32
31331;BME280;34067;39.548;-76.088;2023-01-25T12:26:26;102383.16;;;2.38;55.13
31331;BME280;34067;39.548;-76.088;2023-01-25T12:29:02;102386.89;;;1.85;54.65
31331;BME280;34067;39.548;-76.088;2023-01-25T12:31:38;102395.73;;;2.20;53.53
31331;BME280;34067;39.548;-76.088;2023-01-25T12:34:13;102383.68;;;2.58;54.14
31331;BME280;34067;39.548;-76.088;2023-01-25T12:36:46;102375.05;;;0.03;57.47
31331;BME280;34067;39.548;-76.088;2023-01-25T12:39:20;102367.16;;;1.67;57.84
31331;BME280;34067;39.548;-76.088;2023-01-25T12:41:54;102332.14;;;1.57;55.79
31331;BME280;34067;39.548;-76.088;2023-01-25T12:44:29;102329.54;;;2.30;55.72
31331;BME280;34067;39.548;-76.088;2023-01-25T12:47:04;102332.91;;;1.78;55.25
31331;BME280;34067;39.548;-76.088;2023-01-25T12:49:40;102338.64;;;1.54;55.40
31331;BME280;34067;39.548;-76.088;2023-01-25T12:52:19;102339.99;;;0.94;56.00
31331;BME280;34067;39.548;-76.088;2023-01-25T12:54:51;102335.96;;;1.36;55.91
31331;BME280;34067;39.548;-76.088;2023-01-25T12:57:23;102327.80;;;0.30;56.89